sensor_id;sensor_type;location;lat;lon;timestamp;temperature;humidity
63966;DHT22;50151;52.030;5.350;2024-03-23T00:53:55;8.00;99.90
63966;DHT22;50151;52.030;5.350;2024-03-23T00:56:21;8.00;99.90
63966;DHT22;50151;52.030;5.350;2024-03-23T00:58:47;7.90;99.90
63966;DHT22;50151;52.030;5.350;2024-03-23T01:01:12;7.90;99.90
63966;DHT22;50151;52.030;5.350;2024-03-23T01:03:38;7.90;99.90
63966;DHT22;50151;52.030;5.350;2024-03-23T01:06:04;7.90;99.90
63966;DHT22;50151;52.030;5.350;2024-03-23T01:08:30;7.90;99.90
63966;DHT22;50151;52.030;5.350;2024-03-23T01:11:00;7.90;99.90
63966;DHT22;50151;52.030;5.350;2024-03-23T01:13:27;7.90;99.90
63966;DHT22;50151;52.030;5.350;2024-03-23T01:15:54;8.00;99.90
63966;DHT22;50151;52.030;5.350;2024-03-23T01:18:21;8.00;99.90
63966;DHT22;50151;52.030;5.350;2024-03-23T01:20:47;7.90;99.90
63966;DHT22;50151;52.030;5.350;2024-03-23T01:23:13;7.90;99.90
63966;DHT22;50151;52.030;5.350;2024-03-23T01:25:39;7.90;99.90
63966;DHT22;50151;52.030;5.350;2024-03-23T01:28:05;8.00;99.90
63966;DHT22;50151;52.030;5.350;2024-03-23T01:30:32;7.90;99.90
63966;DHT22;50151;52.030;5.350;2024-03-23T01:32:58;7.90;99.90
63966;DHT22;50151;52.030;5.350;2024-03-23T01:35:24;7.90;99.90
63966;DHT22;50151;52.030;5.350;2024-03-23T01:37:50;7.80;99.90
63966;DHT22;50151;52.030;5.350;2024-03-23T01:40:19;7.80;99.90
63966;DHT22;50151;52.030;5.350;2024-03-23T01:42:59;7.70;99.90
63966;DHT22;50151;52.030;5.350;2024-03-23T01:45:27;7.80;99.90
63966;DHT22;50151;52.030;5.350;2024-03-23T01:47:53;7.80;99.90
63966;DHT22;50151;52.030;5.350;2024-03-23T01:50:20;7.80;99.90
63966;DHT22;50151;52.030;5.350;2024-03-23T01:52:47;7.80;99.90
63966;DHT22;50151;52.030;5.350;2024-03-23T01:55:13;7.80;99.90
63966;DHT22;50151;52.030;5.350;2024-03-23T01:57:39;7.80;99.90
63966;DHT22;50151;52.030;5.350;2024-03-23T02:00:06;7.70;99.90
63966;DHT22;50151;52.030;5.350;2024-03-23T02:02:32;7.70;99.90
63966;DHT22;50151;52.030;5.350;2024-03-23T02:04:57;7.60;99.90
63966;DHT22;50151;52.030;5.350;2024-03-23T02:07:24;7.60;99.90
63966;DHT22;50151;52.030;5.350;2024-03-23T02:09:53;7.60;99.90
63966;DHT22;50151;52.030;5.350;2024-03-23T02:12:20;7.50;99.90
63966;DHT22;50151;52.030;5.350;2024-03-23T02:14:46;7.50;99.90
63966;DHT22;50151;52.030;5.350;2024-03-23T02:17:13;7.40;99.90
63966;DHT22;50151;52.030;5.350;2024-03-23T02:19:39;7.40;99.90
63966;DHT22;50151;52.030;5.350;2024-03-23T02:22:05;7.30;99.90
63966;DHT22;50151;52.030;5.350;2024-03-23T02:24:30;7.30;99.90
63966;DHT22;50151;52.030;5.350;2024-03-23T02:26:56;7.30;99.90
63966;DHT22;50151;52.030;5.350;2024-03-23T02:29:22;7.30;99.90
63966;DHT22;50151;52.030;5.350;2024-03-23T02:31:48;7.20;99.90
63966;DHT22;50151;52.030;5.350;2024-03-23T02:34:14;7.20;99.90
63966;DHT22;50151;52.030;5.350;2024-03-23T02:36:39;7.10;99.90
63966;DHT22;50151;52.030;5.350;2024-03-23T02:39:05;7.10;99.90
63966;DHT22;50151;52.030;5.350;2024-03-23T02:41:31;7.10;99.90
63966;DHT22;50151;52.030;5.350;2024-03-23T02:43:57;7.00;99.90
63966;DHT22;50151;52.030;5.350;2024-03-23T02:46:22;7.00;99.90
63966;DHT22;50151;52.030;5.350;2024-03-23T02:48:49;6.90;99.90
63966;DHT22;50151;52.030;5.350;2024-03-23T02:51:15;6.90;99.90
63966;DHT22;50151;52.030;5.350;2024-03-23T02:53:41;6.90;99.90
63966;DHT22;50151;52.030;5.350;2024-03-23T02:56:06;6.80;99.90
63966;DHT22;50151;52.030;5.350;2024-03-23T02:58:32;6.80;99.90
63966;DHT22;50151;52.030;5.350;2024-03-23T03:00:58;6.70;99.90
63966;DHT22;50151;52.030;5.350;2024-03-23T03:03:24;6.70;99.90
63966;DHT22;50151;52.030;5.350;2024-03-23T03:05:56;6.70;99.90
63966;DHT22;50151;52.030;5.350;2024-03-23T03:08:22;6.70;99.90
63966;DHT22;50151;52.030;5.350;2024-03-23T03:10:48;6.70;99.90
63966;DHT22;50151;52.030;5.350;2024-03-23T03:13:14;6.60;99.90
63966;DHT22;50151;52.030;5.350;2024-03-23T03:15:42;6.50;99.90
63966;DHT22;50151;52.030;5.350;2024-03-23T03:18:08;6.50;99.90
63966;DHT22;50151;52.030;5.350;2024-03-23T03:20:34;6.50;99.90
63966;DHT22;50151;52.030;5.350;2024-03-23T03:23:00;6.50;99.90
63966;DHT22;50151;52.030;5.350;2024-03-23T03:25:26;6.50;99.90
63966;DHT22;50151;52.030;5.350;2024-03-23T03:27:52;6.50;99.90
63966;DHT22;50151;52.030;5.350;2024-03-23T03:30:17;6.40;99.90
63966;DHT22;50151;52.030;5.350;2024-03-23T03:32:43;6.40;99.90
63966;DHT22;50151;52.030;5.350;2024-03-23T03:35:09;6.40;99.90
63966;DHT22;50151;52.030;5.350;2024-03-23T03:37:35;6.30;99.90
63966;DHT22;50151;52.030;5.350;2024-03-23T03:40:00;6.30;99.90
63966;DHT22;50151;52.030;5.350;2024-03-23T03:42:26;6.30;99.90
63966;DHT22;50151;52.030;5.350;2024-03-23T03:44:52;6.30;99.90
63966;DHT22;50151;52.030;5.350;2024-03-23T03:47:19;6.20;99.90
63966;DHT22;50151;52.030;5.350;2024-03-23T03:49:45;6.10;99.90
63966;DHT22;50151;52.030;5.350;2024-03-23T03:52:11;6.10;99.90
63966;DHT22;50151;52.030;5.350;2024-03-23T03:54:36;6.10;99.90
63966;DHT22;50151;52.030;5.350;2024-03-23T03:57:02;6.00;99.90
63966;DHT22;50151;52.030;5.350;2024-03-23T03:59:29;5.90;99.90
63966;DHT22;50151;52.030;5.350;2024-03-23T04:01:55;5.90;99.90
63966;DHT22;50151;52.030;5.350;2024-03-23T04:04:20;5.80;99.90
63966;DHT22;50151;52.030;5.350;2024-03-23T04:06:48;5.70;99.90
63966;DHT22;50151;52.030;5.350;2024-03-23T04:09:13;5.60;99.90
63966;DHT22;50151;52.030;5.350;2024-03-23T04:11:40;5.60;99.90
63966;DHT22;50151;52.030;5.350;2024-03-23T04:14:06;5.50;99.90
63966;DHT22;50151;52.030;5.350;2024-03-23T04:16:34;5.50;99.90
63966;DHT22;50151;52.030;5.350;2024-03-23T04:19:00;5.50;99.90
63966;DHT22;50151;52.030;5.350;2024-03-23T04:21:26;5.40;99.90
63966;DHT22;50151;52.030;5.350;2024-03-23T04:23:52;5.40;99.90
63966;DHT22;50151;52.030;5.350;2024-03-23T04:26:18;5.30;99.90
63966;DHT22;50151;52.030;5.350;2024-03-23T04:28:44;5.30;99.90
63966;DHT22;50151;52.030;5.350;2024-03-23T04:31:09;5.20;99.90
63966;DHT22;50151;52.030;5.350;2024-03-23T04:33:35;5.10;99.90
63966;DHT22;50151;52.030;5.350;2024-03-23T04:36:01;5.20;99.90
63966;DHT22;50151;52.030;5.350;2024-03-23T04:38:28;5.20;99.90
63966;DHT22;50151;52.030;5.350;2024-03-23T04:40:57;5.10;99.90
63966;DHT22;50151;52.030;5.350;2024-03-23T04:43:23;5.10;99.90
63966;DHT22;50151;52.030;5.350;2024-03-23T04:45:49;5.00;99.90
63966;DHT22;50151;52.030;5.350;2024-03-23T04:48:15;5.00;99.90
63966;DHT22;50151;52.030;5.350;2024-03-23T04:50:41;5.00;99.90
63966;DHT22;50151;52.030;5.350;2024-03-23T04:53:07;4.90;99.90
63966;DHT22;50151;52.030;5.350;2024-03-23T04:55:33;4.80;99.90
63966;DHT22;50151;52.030;5.350;2024-03-23T04:57:59;4.80;99.90
63966;DHT22;50151;52.030;5.350;2024-03-23T05:00:26;4.90;99.90
63966;DHT22;50151;52.030;5.350;2024-03-23T05:02:51;4.90;99.90
63966;DHT22;50151;52.030;5.350;2024-03-23T05:05:18;4.90;99.90
63966;DHT22;50151;52.030;5.350;2024-03-23T05:07:44;4.90;99.90
63966;DHT22;50151;52.030;5.350;2024-03-23T05:10:10;4.90;99.90
63966;DHT22;50151;52.030;5.350;2024-03-23T05:12:37;4.90;99.90
63966;DHT22;50151;52.030;5.350;2024-03-23T05:15:05;4.90;99.90
63966;DHT22;50151;52.030;5.350;2024-03-23T05:17:32;4.90;99.90
63966;DHT22;50151;52.030;5.350;2024-03-23T05:19:57;4.90;99.90
63966;DHT22;50151;52.030;5.350;2024-03-23T05:22:23;4.90;99.90
63966;DHT22;50151;52.030;5.350;2024-03-23T05:24:49;4.90;99.90
63966;DHT22;50151;52.030;5.350;2024-03-23T05:27:15;4.80;99.90
63966;DHT22;50151;52.030;5.350;2024-03-23T05:29:41;4.90;99.90
63966;DHT22;50151;52.030;5.350;2024-03-23T05:32:07;4.90;99.90
63966;DHT22;50151;52.030;5.350;2024-03-23T05:34:32;4.90;99.90
63966;DHT22;50151;52.030;5.350;2024-03-23T05:36:58;4.90;99.90
63966;DHT22;50151;52.030;5.350;2024-03-23T05:39:24;4.90;99.90
63966;DHT22;50151;52.030;5.350;2024-03-23T05:41:50;4.90;99.90
63966;DHT22;50151;52.030;5.350;2024-03-23T05:44:16;4.90;99.90
63966;DHT22;50151;52.030;5.350;2024-03-23T05:46:42;5.00;99.90
63966;DHT22;50151;52.030;5.350;2024-03-23T05:49:14;5.00;99.90
63966;DHT22;50151;52.030;5.350;2024-03-23T05:51:39;5.00;99.90
63966;DHT22;50151;52.030;5.350;2024-03-23T05:54:05;5.10;99.90
63966;DHT22;50151;52.030;5.350;2024-03-23T05:56:31;5.10;99.90
63966;DHT22;50151;52.030;5.350;2024-03-23T05:58:57;5.10;99.90
63966;DHT22;50151;52.030;5.350;2024-03-23T06:01:23;5.10;99.90
63966;DHT22;50151;52.030;5.350;2024-03-23T06:03:48;5.10;99.90
63966;DHT22;50151;52.030;5.350;2024-03-23T06:06:14;5.10;99.90
63966;DHT22;50151;52.030;5.350;2024-03-23T06:08:40;5.10;99.90
63966;DHT22;50151;52.030;5.350;2024-03-23T06:11:06;5.20;99.90
63966;DHT22;50151;52.030;5.350;2024-03-23T06:13:32;5.20;99.90
63966;DHT22;50151;52.030;5.350;2024-03-23T06:16:00;5.10;99.90
63966;DHT22;50151;52.030;5.350;2024-03-23T06:18:25;5.20;99.90
63966;DHT22;50151;52.030;5.350;2024-03-23T06:20:52;5.20;99.90
63966;DHT22;50151;52.030;5.350;2024-03-23T06:23:17;5.20;99.90
63966;DHT22;50151;52.030;5.350;2024-03-23T06:25:46;5.20;99.90
63966;DHT22;50151;52.030;5.350;2024-03-23T06:28:12;5.20;99.90
63966;DHT22;50151;52.030;5.350;2024-03-23T06:30:38;5.20;99.90
63966;DHT22;50151;52.030;5.350;2024-03-23T06:33:04;5.30;99.90
63966;DHT22;50151;52.030;5.350;2024-03-23T06:35:31;5.40;99.90
63966;DHT22;50151;52.030;5.350;2024-03-23T06:37:57;5.40;99.90
63966;DHT22;50151;52.030;5.350;2024-03-23T06:40:24;5.50;99.90
63966;DHT22;50151;52.030;5.350;2024-03-23T06:42:49;5.50;99.90
63966;DHT22;50151;52.030;5.350;2024-03-23T06:45:16;5.60;99.90
63966;DHT22;50151;52.030;5.350;2024-03-23T06:47:42;5.60;99.90
63966;DHT22;50151;52.030;5.350;2024-03-23T06:50:08;5.70;99.90
63966;DHT22;50151;52.030;5.350;2024-03-23T06:52:35;5.70;99.90
63966;DHT22;50151;52.030;5.350;2024-03-23T06:55:01;5.80;99.90
63966;DHT22;50151;52.030;5.350;2024-03-23T06:57:30;5.90;99.90
63966;DHT22;50151;52.030;5.350;2024-03-23T06:59:55;5.90;99.90
63966;DHT22;50151;52.030;5.350;2024-03-23T07:02:21;6.00;99.90
63966;DHT22;50151;52.030;5.350;2024-03-23T07:04:47;6.00;99.90
63966;DHT22;50151;52.030;5.350;2024-03-23T07:07:13;6.00;99.90
63966;DHT22;50151;52.030;5.350;2024-03-23T07:09:39;6.10;99.90
63966;DHT22;50151;52.030;5.350;2024-03-23T07:12:05;6.20;99.90
63966;DHT22;50151;52.030;5.350;2024-03-23T07:14:31;6.20;99.90
63966;DHT22;50151;52.030;5.350;2024-03-23T07:16:56;6.20;99.90
63966;DHT22;50151;52.030;5.350;2024-03-23T07:19:22;6.30;99.90
63966;DHT22;50151;52.030;5.350;2024-03-23T07:21:50;6.40;99.90
63966;DHT22;50151;52.030;5.350;2024-03-23T07:24:16;6.50;99.90
63966;DHT22;50151;52.030;5.350;2024-03-23T07:26:41;6.50;99.90
63966;DHT22;50151;52.030;5.350;2024-03-23T07:29:07;6.50;99.90
63966;DHT22;50151;52.030;5.350;2024-03-23T07:31:33;6.50;99.90
63966;DHT22;50151;52.030;5.350;2024-03-23T07:33:59;6.70;99.90
63966;DHT22;50151;52.030;5.350;2024-03-23T07:36:25;6.70;99.90
63966;DHT22;50151;52.030;5.350;2024-03-23T07:38:51;6.80;99.90
63966;DHT22;50151;52.030;5.350;2024-03-23T07:41:18;6.90;99.90
63966;DHT22;50151;52.030;5.350;2024-03-23T07:43:46;7.00;99.90
63966;DHT22;50151;52.030;5.350;2024-03-23T07:46:12;7.00;99.90
63966;DHT22;50151;52.030;5.350;2024-03-23T07:48:39;7.00;99.90
63966;DHT22;50151;52.030;5.350;2024-03-23T07:51:15;7.10;99.90
63966;DHT22;50151;52.030;5.350;2024-03-23T07:53:43;7.30;99.90
63966;DHT22;50151;52.030;5.350;2024-03-23T07:56:09;7.40;99.90
63966;DHT22;50151;52.030;5.350;2024-03-23T07:58:36;7.40;99.90
63966;DHT22;50151;52.030;5.350;2024-03-23T08:01:10;7.50;99.90
63966;DHT22;50151;52.030;5.350;2024-03-23T08:03:41;7.40;99.90
63966;DHT22;50151;52.030;5.350;2024-03-23T08:06:08;7.40;99.90
63966;DHT22;50151;52.030;5.350;2024-03-23T08:08:34;7.40;99.90
63966;DHT22;50151;52.030;5.350;2024-03-23T08:11:00;7.40;99.90
63966;DHT22;50151;52.030;5.350;2024-03-23T08:13:26;7.40;99.90
63966;DHT22;50151;52.030;5.350;2024-03-23T08:15:55;7.40;99.90
63966;DHT22;50151;52.030;5.350;2024-03-23T08:18:22;7.40;99.90
63966;DHT22;50151;52.030;5.350;2024-03-23T08:20:58;7.40;99.90
63966;DHT22;50151;52.030;5.350;2024-03-23T08:23:28;7.40;99.90
63966;DHT22;50151;52.030;5.350;2024-03-23T08:25:58;7.30;99.90
63966;DHT22;50151;52.030;5.350;2024-03-23T08:28:25;7.30;99.90
63966;DHT22;50151;52.030;5.350;2024-03-23T08:30:55;7.20;99.90
63966;DHT22;50151;52.030;5.350;2024-03-23T08:33:21;7.30;99.90
63966;DHT22;50151;52.030;5.350;2024-03-23T08:36:13;7.20;99.90
63966;DHT22;50151;52.030;5.350;2024-03-23T08:38:40;7.30;99.90
63966;DHT22;50151;52.030;5.350;2024-03-23T08:41:07;7.20;99.90
63966;DHT22;50151;52.030;5.350;2024-03-23T08:43:37;7.30;99.90
63966;DHT22;50151;52.030;5.350;2024-03-23T08:46:10;7.40;99.90
63966;DHT22;50151;52.030;5.350;2024-03-23T08:48:45;7.40;99.90
63966;DHT22;50151;52.030;5.350;2024-03-23T08:51:12;7.40;99.90
63966;DHT22;50151;52.030;5.350;2024-03-23T08:53:39;7.60;99.90
63966;DHT22;50151;52.030;5.350;2024-03-23T08:56:06;7.80;99.90
63966;DHT22;50151;52.030;5.350;2024-03-23T08:58:33;7.90;99.90
63966;DHT22;50151;52.030;5.350;2024-03-23T09:01:11;8.10;99.90
63966;DHT22;50151;52.030;5.350;2024-03-23T09:03:41;8.20;99.90
63966;DHT22;50151;52.030;5.350;2024-03-23T09:06:16;8.30;99.90
63966;DHT22;50151;52.030;5.350;2024-03-23T09:08:42;8.50;99.90
63966;DHT22;50151;52.030;5.350;2024-03-23T09:11:12;8.70;99.90
63966;DHT22;50151;52.030;5.350;2024-03-23T09:13:38;8.60;99.90
63966;DHT22;50151;52.030;5.350;2024-03-23T09:16:05;8.70;99.90
63966;DHT22;50151;52.030;5.350;2024-03-23T09:18:33;8.70;99.90
63966;DHT22;50151;52.030;5.350;2024-03-23T09:20:59;8.70;99.90
63966;DHT22;50151;52.030;5.350;2024-03-23T09:23:25;8.70;99.90
63966;DHT22;50151;52.030;5.350;2024-03-23T09:25:50;8.50;99.90
63966;DHT22;50151;52.030;5.350;2024-03-23T09:28:16;8.30;99.90
63966;DHT22;50151;52.030;5.350;2024-03-23T09:30:42;7.80;99.90
63966;DHT22;50151;52.030;5.350;2024-03-23T09:33:09;7.70;99.90
63966;DHT22;50151;52.030;5.350;2024-03-23T09:35:39;7.60;99.90
63966;DHT22;50151;52.030;5.350;2024-03-23T09:38:05;7.50;99.90
63966;DHT22;50151;52.030;5.350;2024-03-23T09:40:33;7.80;99.90
63966;DHT22;50151;52.030;5.350;2024-03-23T09:42:59;8.00;99.90
63966;DHT22;50151;52.030;5.350;2024-03-23T09:45:31;8.20;99.90
63966;DHT22;50151;52.030;5.350;2024-03-23T09:47:59;8.40;99.90
63966;DHT22;50151;52.030;5.350;2024-03-23T09:50:25;8.40;99.90
63966;DHT22;50151;52.030;5.350;2024-03-23T09:52:50;8.50;99.90
63966;DHT22;50151;52.030;5.350;2024-03-23T09:55:16;8.20;99.90
63966;DHT22;50151;52.030;5.350;2024-03-23T09:57:42;7.90;99.90
63966;DHT22;50151;52.030;5.350;2024-03-23T10:00:08;8.00;99.90
63966;DHT22;50151;52.030;5.350;2024-03-23T10:02:35;8.20;99.90
63966;DHT22;50151;52.030;5.350;2024-03-23T10:05:01;8.20;99.90
63966;DHT22;50151;52.030;5.350;2024-03-23T10:07:27;8.20;99.90
63966;DHT22;50151;52.030;5.350;2024-03-23T10:09:55;8.20;99.90
63966;DHT22;50151;52.030;5.350;2024-03-23T10:12:23;8.30;99.90
63966;DHT22;50151;52.030;5.350;2024-03-23T10:14:49;8.50;99.90
63966;DHT22;50151;52.030;5.350;2024-03-23T10:17:16;8.40;99.90
63966;DHT22;50151;52.030;5.350;2024-03-23T10:19:49;8.20;99.90
63966;DHT22;50151;52.030;5.350;2024-03-23T10:22:18;8.10;99.90
63966;DHT22;50151;52.030;5.350;2024-03-23T10:24:45;8.20;99.90
63966;DHT22;50151;52.030;5.350;2024-03-23T10:29:46;8.00;99.90
63966;DHT22;50151;52.030;5.350;2024-03-23T10:32:13;8.40;99.90
63966;DHT22;50151;52.030;5.350;2024-03-23T10:34:40;8.50;99.90
63966;DHT22;50151;52.030;5.350;2024-03-23T10:37:06;8.50;99.90
63966;DHT22;50151;52.030;5.350;2024-03-23T10:39:37;8.70;99.90
63966;DHT22;50151;52.030;5.350;2024-03-23T10:42:07;8.60;99.90
63966;DHT22;50151;52.030;5.350;2024-03-23T10:44:34;8.80;99.90
63966;DHT22;50151;52.030;5.350;2024-03-23T10:47:04;8.80;99.90
63966;DHT22;50151;52.030;5.350;2024-03-23T10:49:32;8.60;99.90
63966;DHT22;50151;52.030;5.350;2024-03-23T10:52:02;8.50;99.90
63966;DHT22;50151;52.030;5.350;2024-03-23T10:54:30;8.20;99.90
63966;DHT22;50151;52.030;5.350;2024-03-23T10:57:09;8.10;99.90
63966;DHT22;50151;52.030;5.350;2024-03-23T10:59:37;8.30;99.90
63966;DHT22;50151;52.030;5.350;2024-03-23T11:02:04;8.40;99.90
63966;DHT22;50151;52.030;5.350;2024-03-23T11:04:34;8.50;99.90
63966;DHT22;50151;52.030;5.350;2024-03-23T11:09:53;8.90;99.90
63966;DHT22;50151;52.030;5.350;2024-03-23T11:17:22;8.00;99.90
63966;DHT22;50151;52.030;5.350;2024-03-23T11:19:58;8.00;99.90
63966;DHT22;50151;52.030;5.350;2024-03-23T11:22:41;8.00;99.90
63966;DHT22;50151;52.030;5.350;2024-03-23T11:25:21;7.70;99.90
63966;DHT22;50151;52.030;5.350;2024-03-23T11:27:49;7.70;99.90
63966;DHT22;50151;52.030;5.350;2024-03-23T11:30:36;7.70;99.90
63966;DHT22;50151;52.030;5.350;2024-03-23T11:33:04;7.80;99.90
63966;DHT22;50151;52.030;5.350;2024-03-23T11:35:35;7.70;99.90
63966;DHT22;50151;52.030;5.350;2024-03-23T11:38:11;7.70;99.90
63966;DHT22;50151;52.030;5.350;2024-03-23T11:40:42;8.10;99.90
63966;DHT22;50151;52.030;5.350;2024-03-23T11:48:16;9.00;99.90
63966;DHT22;50151;52.030;5.350;2024-03-23T11:50:50;9.40;99.90
63966;DHT22;50151;52.030;5.350;2024-03-23T11:53:20;9.00;99.90
63966;DHT22;50151;52.030;5.350;2024-03-23T11:55:52;8.90;99.90
63966;DHT22;50151;52.030;5.350;2024-03-23T11:58:22;9.20;99.90
63966;DHT22;50151;52.030;5.350;2024-03-23T12:00:55;9.40;99.90
63966;DHT22;50151;52.030;5.350;2024-03-23T12:03:21;9.70;99.90
63966;DHT22;50151;52.030;5.350;2024-03-23T12:05:55;9.80;99.90
63966;DHT22;50151;52.030;5.350;2024-03-23T12:11:05;9.10;99.90
63966;DHT22;50151;52.030;5.350;2024-03-23T12:13:32;8.90;99.90
63966;DHT22;50151;52.030;5.350;2024-03-23T12:18:35;9.20;99.90
63966;DHT22;50151;52.030;5.350;2024-03-23T12:21:00;9.80;99.90
63966;DHT22;50151;52.030;5.350;2024-03-23T12:23:26;9.50;99.90
63966;DHT22;50151;52.030;5.350;2024-03-23T12:25:52;9.30;99.90
63966;DHT22;50151;52.030;5.350;2024-03-23T12:28:18;9.50;99.90
63966;DHT22;50151;52.030;5.350;2024-03-23T12:30:43;9.80;99.90
63966;DHT22;50151;52.030;5.350;2024-03-23T12:33:11;9.50;99.90
63966;DHT22;50151;52.030;5.350;2024-03-23T12:35:37;9.30;99.90
63966;DHT22;50151;52.030;5.350;2024-03-23T12:38:03;9.10;99.90
63966;DHT22;50151;52.030;5.350;2024-03-23T12:40:29;9.10;99.90
63966;DHT22;50151;52.030;5.350;2024-03-23T12:42:55;9.10;99.90
63966;DHT22;50151;52.030;5.350;2024-03-23T12:45:22;9.10;99.90
63966;DHT22;50151;52.030;5.350;2024-03-23T12:47:48;9.90;99.90
63966;DHT22;50151;52.030;5.350;2024-03-23T12:50:14;10.30;99.90
63966;DHT22;50151;52.030;5.350;2024-03-23T12:52:39;9.90;99.90
63966;DHT22;50151;52.030;5.350;2024-03-23T12:55:05;9.80;99.90
63966;DHT22;50151;52.030;5.350;2024-03-23T12:57:32;9.90;99.90
63966;DHT22;50151;52.030;5.350;2024-03-23T12:59:57;9.50;99.90
63966;DHT22;50151;52.030;5.350;2024-03-23T13:02:23;9.40;99.90
63966;DHT22;50151;52.030;5.350;2024-03-23T13:04:50;9.60;99.90
63966;DHT22;50151;52.030;5.350;2024-03-23T13:07:17;9.50;99.90
63966;DHT22;50151;52.030;5.350;2024-03-23T13:09:43;9.50;99.90
63966;DHT22;50151;52.030;5.350;2024-03-23T13:12:09;9.30;99.90
63966;DHT22;50151;52.030;5.350;2024-03-23T13:14:35;9.80;99.90
63966;DHT22;50151;52.030;5.350;2024-03-23T13:17:01;9.40;99.90
63966;DHT22;50151;52.030;5.350;2024-03-23T13:19:28;9.30;99.90
63966;DHT22;50151;52.030;5.350;2024-03-23T13:22:00;9.10;99.90
63966;DHT22;50151;52.030;5.350;2024-03-23T13:24:27;9.20;99.90
63966;DHT22;50151;52.030;5.350;2024-03-23T13:26:54;9.10;99.90
63966;DHT22;50151;52.030;5.350;2024-03-23T13:29:20;8.80;99.90
63966;DHT22;50151;52.030;5.350;2024-03-23T13:31:47;9.20;99.90
63966;DHT22;50151;52.030;5.350;2024-03-23T13:34:13;9.10;99.90
63966;DHT22;50151;52.030;5.350;2024-03-23T13:36:44;9.80;99.90
63966;DHT22;50151;52.030;5.350;2024-03-23T13:39:11;10.60;99.90
63966;DHT22;50151;52.030;5.350;2024-03-23T13:41:41;11.50;99.90
63966;DHT22;50151;52.030;5.350;2024-03-23T13:44:08;11.20;99.90
63966;DHT22;50151;52.030;5.350;2024-03-23T13:46:36;11.20;99.90
63966;DHT22;50151;52.030;5.350;2024-03-23T13:49:02;11.70;99.90
63966;DHT22;50151;52.030;5.350;2024-03-23T13:51:28;11.10;99.90
63966;DHT22;50151;52.030;5.350;2024-03-23T13:53:54;9.70;99.90
63966;DHT22;50151;52.030;5.350;2024-03-23T13:56:21;9.30;99.90
63966;DHT22;50151;52.030;5.350;2024-03-23T13:58:47;9.40;99.90
63966;DHT22;50151;52.030;5.350;2024-03-23T14:01:16;9.30;99.90
63966;DHT22;50151;52.030;5.350;2024-03-23T14:03:43;9.20;99.90
63966;DHT22;50151;52.030;5.350;2024-03-23T14:06:10;9.70;99.90
63966;DHT22;50151;52.030;5.350;2024-03-23T14:08:37;10.40;99.90
63966;DHT22;50151;52.030;5.350;2024-03-23T14:11:06;10.80;99.90
63966;DHT22;50151;52.030;5.350;2024-03-23T14:13:32;11.40;99.90
63966;DHT22;50151;52.030;5.350;2024-03-23T14:15:58;11.70;99.90
63966;DHT22;50151;52.030;5.350;2024-03-23T14:18:25;11.70;99.90
63966;DHT22;50151;52.030;5.350;2024-03-23T14:20:58;12.30;99.90
63966;DHT22;50151;52.030;5.350;2024-03-23T14:23:28;12.00;99.90
63966;DHT22;50151;52.030;5.350;2024-03-23T14:26:00;11.90;99.90
63966;DHT22;50151;52.030;5.350;2024-03-23T14:28:26;12.00;99.90
63966;DHT22;50151;52.030;5.350;2024-03-23T14:30:55;12.50;99.90
63966;DHT22;50151;52.030;5.350;2024-03-23T14:33:21;12.50;99.90
63966;DHT22;50151;52.030;5.350;2024-03-23T14:35:55;12.70;99.90
63966;DHT22;50151;52.030;5.350;2024-03-23T14:38:23;11.50;99.90
63966;DHT22;50151;52.030;5.350;2024-03-23T14:40:50;10.90;99.90
63966;DHT22;50151;52.030;5.350;2024-03-23T14:43:16;10.50;99.90
63966;DHT22;50151;52.030;5.350;2024-03-23T14:48:33;11.50;99.90
63966;DHT22;50151;52.030;5.350;2024-03-23T14:51:00;12.10;99.90
63966;DHT22;50151;52.030;5.350;2024-03-23T14:53:26;12.60;99.90
63966;DHT22;50151;52.030;5.350;2024-03-23T14:55:55;12.50;99.90
63966;DHT22;50151;52.030;5.350;2024-03-23T14:58:21;13.10;99.90
63966;DHT22;50151;52.030;5.350;2024-03-23T15:00:49;13.40;99.90
63966;DHT22;50151;52.030;5.350;2024-03-23T15:03:14;13.10;99.90
63966;DHT22;50151;52.030;5.350;2024-03-23T15:05:41;12.50;99.90
63966;DHT22;50151;52.030;5.350;2024-03-23T15:08:07;11.60;99.90
63966;DHT22;50151;52.030;5.350;2024-03-23T15:10:34;12.20;99.90
63966;DHT22;50151;52.030;5.350;2024-03-23T15:12:59;11.90;99.90
63966;DHT22;50151;52.030;5.350;2024-03-23T15:15:25;11.80;99.90
63966;DHT22;50151;52.030;5.350;2024-03-23T15:17:52;12.00;99.90
63966;DHT22;50151;52.030;5.350;2024-03-23T15:20:17;12.10;99.90
63966;DHT22;50151;52.030;5.350;2024-03-23T15:22:43;11.70;99.90
63966;DHT22;50151;52.030;5.350;2024-03-23T15:25:09;12.00;99.90
63966;DHT22;50151;52.030;5.350;2024-03-23T15:27:35;11.60;99.90
63966;DHT22;50151;52.030;5.350;2024-03-23T15:30:01;12.20;99.90
63966;DHT22;50151;52.030;5.350;2024-03-23T15:32:27;11.70;99.90
63966;DHT22;50151;52.030;5.350;2024-03-23T15:34:52;11.30;99.90
63966;DHT22;50151;52.030;5.350;2024-03-23T15:37:18;10.70;99.90
63966;DHT22;50151;52.030;5.350;2024-03-23T15:39:44;10.60;99.90
63966;DHT22;50151;52.030;5.350;2024-03-23T15:42:10;10.50;99.90
63966;DHT22;50151;52.030;5.350;2024-03-23T15:44:36;10.90;99.90
63966;DHT22;50151;52.030;5.350;2024-03-23T15:47:02;10.70;99.90
63966;DHT22;50151;52.030;5.350;2024-03-23T15:49:28;10.50;99.90
63966;DHT22;50151;52.030;5.350;2024-03-23T15:51:53;10.10;99.90
63966;DHT22;50151;52.030;5.350;2024-03-23T15:54:19;10.20;99.90
63966;DHT22;50151;52.030;5.350;2024-03-23T15:56:47;9.70;99.90
63966;DHT22;50151;52.030;5.350;2024-03-23T15:59:13;10.00;99.90
63966;DHT22;50151;52.030;5.350;2024-03-23T16:01:38;10.40;99.90
63966;DHT22;50151;52.030;5.350;2024-03-23T16:04:04;10.50;99.90
63966;DHT22;50151;52.030;5.350;2024-03-23T16:06:30;10.60;99.90
63966;DHT22;50151;52.030;5.350;2024-03-23T16:08:56;10.60;99.90
63966;DHT22;50151;52.030;5.350;2024-03-23T16:11:22;10.60;99.90
63966;DHT22;50151;52.030;5.350;2024-03-23T16:13:48;10.80;99.90
63966;DHT22;50151;52.030;5.350;2024-03-23T16:16:14;10.80;99.90
63966;DHT22;50151;52.030;5.350;2024-03-23T16:18:41;10.50;99.90
63966;DHT22;50151;52.030;5.350;2024-03-23T16:21:09;9.90;99.90
63966;DHT22;50151;52.030;5.350;2024-03-23T16:23:36;9.70;99.90
63966;DHT22;50151;52.030;5.350;2024-03-23T16:26:07;9.80;99.90
63966;DHT22;50151;52.030;5.350;2024-03-23T16:28:34;9.60;99.90
63966;DHT22;50151;52.030;5.350;2024-03-23T16:31:02;9.50;99.90
63966;DHT22;50151;52.030;5.350;2024-03-23T16:33:29;9.20;99.90
63966;DHT22;50151;52.030;5.350;2024-03-23T16:36:03;9.30;99.90
63966;DHT22;50151;52.030;5.350;2024-03-23T16:38:40;9.10;99.90
63966;DHT22;50151;52.030;5.350;2024-03-23T16:41:07;9.10;99.90
63966;DHT22;50151;52.030;5.350;2024-03-23T16:43:34;9.00;99.90
63966;DHT22;50151;52.030;5.350;2024-03-23T16:48:30;9.20;99.90
63966;DHT22;50151;52.030;5.350;2024-03-23T16:50:58;9.10;99.90
63966;DHT22;50151;52.030;5.350;2024-03-23T16:53:24;9.10;99.90
63966;DHT22;50151;52.030;5.350;2024-03-23T16:55:55;9.00;99.90
63966;DHT22;50151;52.030;5.350;2024-03-23T16:58:24;8.60;99.90
63966;DHT22;50151;52.030;5.350;2024-03-23T17:00:50;8.30;99.90
63966;DHT22;50151;52.030;5.350;2024-03-23T17:03:16;7.90;99.90